sensor_id;sensor_type;location;lat;lon;timestamp;pressure;altitude;pressure_sealevel;temperature;humidity
36242;BME280;22283;42.748;12.732;2023-02-11T00:00:13;99848.22;;;-4.22;97.04
36242;BME280;22283;42.748;12.732;2023-02-11T00:05:14;99848.34;;;-4.12;97.19
36242;BME280;22283;42.748;12.732;2023-02-11T00:10:15;99854.47;;;-4.06;96.73
36242;BME280;22283;42.748;12.732;2023-02-11T00:15:15;99863.16;;;-4.01;95.25
36242;BME280;22283;42.748;12.732;2023-02-11T00:20:16;99861.28;;;-4.12;94.04
36242;BME280;22283;42.748;12.732;2023-02-11T00:25:17;99852.50;;;-4.25;95.12
36242;BME280;22283;42.748;12.732;2023-02-11T00:30:17;99849.22;;;-4.12;97.50
36242;BME280;22283;42.748;12.732;2023-02-11T00:35:18;99851.00;;;-4.08;96.13
36242;BME280;22283;42.748;12.732;2023-02-11T00:40:19;99854.38;;;-4.12;97.34
36242;BME280;22283;42.748;12.732;2023-02-11T00:45:20;99849.03;;;-4.24;97.25
36242;BME280;22283;42.748;12.732;2023-02-11T00:50:21;99847.31;;;-4.25;97.37
36242;BME280;22283;42.748;12.732;2023-02-11T00:55:22;99833.44;;;-4.33;97.88
36242;BME280;22283;42.748;12.732;2023-02-11T01:00:22;99841.19;;;-4.33;98.98
36242;BME280;22283;42.748;12.732;2023-02-11T01:05:23;99846.28;;;-4.39;98.91
36242;BME280;22283;42.748;12.732;2023-02-11T01:10:24;99840.03;;;-4.52;99.46
36242;BME280;22283;42.748;12.732;2023-02-11T01:15:26;99840.91;;;-4.52;100.00
36242;BME280;22283;42.748;12.732;2023-02-11T01:20:27;99844.41;;;-4.50;99.91
36242;BME280;22283;42.748;12.732;2023-02-11T01:25:30;99843.44;;;-4.56;100.00
36242;BME280;22283;42.748;12.732;2023-02-11T01:30:31;99842.50;;;-4.60;100.00
36242;BME280;22283;42.748;12.732;2023-02-11T01:35:31;99838.38;;;-4.49;100.00
36242;BME280;22283;42.748;12.732;2023-02-11T01:40:32;99819.53;;;-4.40;100.00
36242;BME280;22283;42.748;12.732;2023-02-11T01:50:42;99802.38;;;-4.36;100.00
36242;BME280;22283;42.748;12.732;2023-02-11T01:55:45;99805.91;;;-4.28;99.56
36242;BME280;22283;42.748;12.732;2023-02-11T02:01:06;99802.31;;;-4.42;99.69
36242;BME280;22283;42.748;12.732;2023-02-11T02:11:30;99809.09;;;-4.48;99.74
36242;BME280;22283;42.748;12.732;2023-02-11T02:16:34;99800.34;;;-4.59;98.50
36242;BME280;22283;42.748;12.732;2023-02-11T02:27:28;99798.47;;;-4.69;99.45
36242;BME280;22283;42.748;12.732;2023-02-11T02:37:46;99805.53;;;-4.56;99.98
36242;BME280;22283;42.748;12.732;2023-02-11T02:42:50;99811.44;;;-4.66;100.00
36242;BME280;22283;42.748;12.732;2023-02-11T02:47:52;99806.22;;;-4.71;100.00
36242;BME280;22283;42.748;12.732;2023-02-11T03:03:37;99793.13;;;-4.81;100.00
36242;BME280;22283;42.748;12.732;2023-02-11T03:08:41;99801.97;;;-4.64;100.00
36242;BME280;22283;42.748;12.732;2023-02-11T03:13:45;99804.44;;;-4.72;100.00
36242;BME280;22283;42.748;12.732;2023-02-11T03:18:50;99803.47;;;-4.81;99.86
36242;BME280;22283;42.748;12.732;2023-02-11T03:23:54;99800.19;;;-4.68;100.00
36242;BME280;22283;42.748;12.732;2023-02-11T03:39:34;99801.63;;;-4.88;100.00
36242;BME280;22283;42.748;12.732;2023-02-11T03:44:43;99796.31;;;-4.98;100.00
36242;BME280;22283;42.748;12.732;2023-02-11T03:49:46;99791.09;;;-5.02;100.00
36242;BME280;22283;42.748;12.732;2023-02-11T03:54:53;99781.56;;;-5.06;100.00
36242;BME280;22283;42.748;12.732;2023-02-11T03:59:57;99785.03;;;-5.04;100.00
36242;BME280;22283;42.748;12.732;2023-02-11T04:04:58;99792.69;;;-5.09;100.00
36242;BME280;22283;42.748;12.732;2023-02-11T04:09:59;99782.31;;;-5.12;100.00
36242;BME280;22283;42.748;12.732;2023-02-11T04:14:59;99790.06;;;-5.12;100.00
36242;BME280;22283;42.748;12.732;2023-02-11T04:20:00;99797.06;;;-5.06;100.00
36242;BME280;22283;42.748;12.732;2023-02-11T04:25:01;99791.00;;;-5.07;100.00
36242;BME280;22283;42.748;12.732;2023-02-11T04:30:03;99789.44;;;-4.99;100.00
36242;BME280;22283;42.748;12.732;2023-02-11T04:35:05;99779.13;;;-4.96;100.00
36242;BME280;22283;42.748;12.732;2023-02-11T04:40:06;99786.06;;;-4.93;100.00
36242;BME280;22283;42.748;12.732;2023-02-11T04:45:07;99785.94;;;-5.01;100.00
36242;BME280;22283;42.748;12.732;2023-02-11T04:50:08;99773.69;;;-5.14;100.00
36242;BME280;22283;42.748;12.732;2023-02-11T04:55:09;99780.53;;;-5.16;100.00
36242;BME280;22283;42.748;12.732;2023-02-11T05:00:10;99794.38;;;-5.11;100.00
36242;BME280;22283;42.748;12.732;2023-02-11T05:05:11;99768.56;;;-5.11;100.00
36242;BME280;22283;42.748;12.732;2023-02-11T05:10:12;99768.50;;;-5.17;100.00
36242;BME280;22283;42.748;12.732;2023-02-11T05:15:13;99777.22;;;-5.09;100.00
36242;BME280;22283;42.748;12.732;2023-02-11T05:20:14;99754.47;;;-5.33;100.00
36242;BME280;22283;42.748;12.732;2023-02-11T05:25:14;99750.91;;;-5.39;100.00
36242;BME280;22283;42.748;12.732;2023-02-11T05:30:15;99773.53;;;-5.25;100.00
36242;BME280;22283;42.748;12.732;2023-02-11T05:35:16;99787.03;;;-5.39;100.00
36242;BME280;22283;42.748;12.732;2023-02-11T05:40:17;99786.53;;;-5.17;100.00
36242;BME280;22283;42.748;12.732;2023-02-11T05:45:18;99784.75;;;-5.23;100.00
36242;BME280;22283;42.748;12.732;2023-02-11T05:50:18;99785.34;;;-5.37;100.00
36242;BME280;22283;42.748;12.732;2023-02-11T05:55:20;99797.25;;;-5.46;100.00
36242;BME280;22283;42.748;12.732;2023-02-11T06:00:21;99814.53;;;-5.40;100.00
36242;BME280;22283;42.748;12.732;2023-02-11T06:05:22;99824.84;;;-5.41;100.00
36242;BME280;22283;42.748;12.732;2023-02-11T06:10:22;99831.66;;;-5.44;100.00
36242;BME280;22283;42.748;12.732;2023-02-11T06:15:23;99814.59;;;-5.38;100.00
36242;BME280;22283;42.748;12.732;2023-02-11T06:20:24;99825.19;;;-5.20;100.00
36242;BME280;22283;42.748;12.732;2023-02-11T06:25:25;99822.47;;;-5.28;100.00
36242;BME280;22283;42.748;12.732;2023-02-11T06:30:25;99842.47;;;-5.16;100.00
36242;BME280;22283;42.748;12.732;2023-02-11T06:35:27;99832.28;;;-5.07;100.00
36242;BME280;22283;42.748;12.732;2023-02-11T06:40:27;99844.63;;;-4.90;100.00
36242;BME280;22283;42.748;12.732;2023-02-11T06:45:28;99832.75;;;-4.79;100.00
36242;BME280;22283;42.748;12.732;2023-02-11T06:50:29;99843.38;;;-4.59;100.00
36242;BME280;22283;42.748;12.732;2023-02-11T06:55:29;99847.59;;;-4.66;98.75
36242;BME280;22283;42.748;12.732;2023-02-11T07:00:30;99853.97;;;-4.41;99.33
36242;BME280;22283;42.748;12.732;2023-02-11T07:05:31;99860.53;;;-4.04;96.33
36242;BME280;22283;42.748;12.732;2023-02-11T07:10:33;99857.44;;;-3.75;93.08
36242;BME280;22283;42.748;12.732;2023-02-11T07:15:35;99862.25;;;-3.31;91.71
36242;BME280;22283;42.748;12.732;2023-02-11T07:20:36;99860.00;;;-2.94;88.62
36242;BME280;22283;42.748;12.732;2023-02-11T07:25:38;99871.56;;;-2.51;85.68
36242;BME280;22283;42.748;12.732;2023-02-11T07:30:38;99877.00;;;-2.16;83.66
36242;BME280;22283;42.748;12.732;2023-02-11T07:35:40;99881.50;;;-1.86;81.31
36242;BME280;22283;42.748;12.732;2023-02-11T07:40:41;99885.09;;;-1.47;76.31
36242;BME280;22283;42.748;12.732;2023-02-11T07:45:42;99886.94;;;-1.18;75.36
36242;BME280;22283;42.748;12.732;2023-02-11T07:50:42;99875.69;;;-0.96;74.06
36242;BME280;22283;42.748;12.732;2023-02-11T07:55:43;99880.03;;;-0.69;74.37
36242;BME280;22283;42.748;12.732;2023-02-11T08:00:43;99882.63;;;-0.44;71.95
36242;BME280;22283;42.748;12.732;2023-02-11T08:05:45;99875.66;;;-0.07;68.88
36242;BME280;22283;42.748;12.732;2023-02-11T08:10:45;99871.25;;;0.10;66.82
36242;BME280;22283;42.748;12.732;2023-02-11T08:15:46;99883.34;;;0.31;64.93
36242;BME280;22283;42.748;12.732;2023-02-11T08:20:47;99879.78;;;0.52;62.66
36242;BME280;22283;42.748;12.732;2023-02-11T08:25:47;99885.75;;;0.71;61.45
36242;BME280;22283;42.748;12.732;2023-02-11T08:30:48;99887.44;;;0.87;61.65
36242;BME280;22283;42.748;12.732;2023-02-11T08:35:49;99879.50;;;1.04;62.45
36242;BME280;22283;42.748;12.732;2023-02-11T08:40:49;99879.31;;;1.26;60.78
36242;BME280;22283;42.748;12.732;2023-02-11T08:45:50;99873.94;;;1.48;58.77
36242;BME280;22283;42.748;12.732;2023-02-11T08:50:51;99878.03;;;1.74;57.57
36242;BME280;22283;42.748;12.732;2023-02-11T08:55:53;99869.16;;;1.95;56.51
36242;BME280;22283;42.748;12.732;2023-02-11T09:00:55;99861.03;;;2.19;55.65
36242;BME280;22283;42.748;12.732;2023-02-11T09:05:55;99866.84;;;2.41;53.80
36242;BME280;22283;42.748;12.732;2023-02-11T09:10:56;99863.25;;;2.52;53.04
36242;BME280;22283;42.748;12.732;2023-02-11T09:15:57;99864.63;;;2.80;53.60
36242;BME280;22283;42.748;12.732;2023-02-11T09:21:06;99861.78;;;2.97;54.41
36242;BME280;22283;42.748;12.732;2023-02-11T09:26:09;99861.63;;;3.06;53.56
36242;BME280;22283;42.748;12.732;2023-02-11T09:31:13;99856.91;;;3.28;52.63
36242;BME280;22283;42.748;12.732;2023-02-11T09:36:17;99858.34;;;3.48;52.11
36242;BME280;22283;42.748;12.732;2023-02-11T09:46:25;99850.69;;;3.86;50.42
36242;BME280;22283;42.748;12.732;2023-02-11T09:51:37;99857.22;;;4.12;48.24
36242;BME280;22283;42.748;12.732;2023-02-11T09:56:39;99856.06;;;4.25;47.90
36242;BME280;22283;42.748;12.732;2023-02-11T10:02:03;99855.88;;;4.34;48.14
36242;BME280;22283;42.748;12.732;2023-02-11T10:07:23;99852.72;;;4.59;48.31
36242;BME280;22283;42.748;12.732;2023-02-11T10:23:25;99861.16;;;4.73;46.31
36242;BME280;22283;42.748;12.732;2023-02-11T10:28:32;99868.88;;;4.81;45.67
36242;BME280;22283;42.748;12.732;2023-02-11T10:33:45;99860.91;;;4.85;45.04
36242;BME280;22283;42.748;12.732;2023-02-11T10:38:46;99871.34;;;4.87;44.95
36242;BME280;22283;42.748;12.732;2023-02-11T10:43:47;99851.84;;;4.99;45.14
36242;BME280;22283;42.748;12.732;2023-02-11T10:48:50;99854.09;;;5.15;45.40
36242;BME280;22283;42.748;12.732;2023-02-11T10:59:33;99843.56;;;5.53;44.50
36242;BME280;22283;42.748;12.732;2023-02-11T11:04:42;99840.25;;;5.79;43.93
36242;BME280;22283;42.748;12.732;2023-02-11T11:09:58;99840.16;;;5.82;43.55
36242;BME280;22283;42.748;12.732;2023-02-11T11:15:20;99845.16;;;5.94;43.32
36242;BME280;22283;42.748;12.732;2023-02-11T11:20:27;99837.66;;;6.11;43.40
36242;BME280;22283;42.748;12.732;2023-02-11T11:25:29;99820.59;;;6.26;43.10
36242;BME280;22283;42.748;12.732;2023-02-11T11:30:38;99827.31;;;6.36;43.16
36242;BME280;22283;42.748;12.732;2023-02-11T11:35:40;99817.63;;;6.37;43.16
36242;BME280;22283;42.748;12.732;2023-02-11T11:40:41;99820.19;;;6.40;43.06
36242;BME280;22283;42.748;12.732;2023-02-11T11:45:53;99823.16;;;6.59;43.42
36242;BME280;22283;42.748;12.732;2023-02-11T11:51:00;99805.34;;;6.67;43.36
36242;BME280;22283;42.748;12.732;2023-02-11T11:56:05;99805.56;;;6.89;42.57
36242;BME280;22283;42.748;12.732;2023-02-11T12:11:52;99780.00;;;7.21;41.27
36242;BME280;22283;42.748;12.732;2023-02-11T12:17:00;99776.94;;;7.33;41.69
36242;BME280;22283;42.748;12.732;2023-02-11T12:32:38;99763.16;;;7.76;39.47
36242;BME280;22283;42.748;12.732;2023-02-11T12:38:26;99754.06;;;7.85;39.27
36242;BME280;22283;42.748;12.732;2023-02-11T12:43:23;99755.47;;;7.94;39.55
36242;BME280;22283;42.748;12.732;2023-02-11T12:54:28;99746.91;;;8.12;39.10
36242;BME280;22283;42.748;12.732;2023-02-11T13:04:45;99741.63;;;8.35;38.40
36242;BME280;22283;42.748;12.732;2023-02-11T13:09:56;99741.28;;;8.45;38.20
36242;BME280;22283;42.748;12.732;2023-02-11T13:15:03;99739.22;;;8.53;38.07
36242;BME280;22283;42.748;12.732;2023-02-11T13:25:37;99718.03;;;8.54;38.46
36242;BME280;22283;42.748;12.732;2023-02-11T13:30:40;99722.91;;;8.65;37.93
36242;BME280;22283;42.748;12.732;2023-02-11T13:36:08;99713.28;;;8.64;37.67
36242;BME280;22283;42.748;12.732;2023-02-11T13:41:28;99694.31;;;8.76;38.25
36242;BME280;22283;42.748;12.732;2023-02-11T13:51:56;99704.03;;;8.96;37.82
36242;BME280;22283;42.748;12.732;2023-02-11T13:57:31;99703.84;;;9.01;37.27
36242;BME280;22283;42.748;12.732;2023-02-11T14:02:35;99702.13;;;9.00;37.71
36242;BME280;22283;42.748;12.732;2023-02-11T14:08:12;99703.72;;;9.04;37.16
36242;BME280;22283;42.748;12.732;2023-02-11T14:23:47;99707.34;;;9.01;38.51
36242;BME280;22283;42.748;12.732;2023-02-11T14:34:39;99707.03;;;9.09;39.06
36242;BME280;22283;42.748;12.732;2023-02-11T14:40:13;99702.59;;;9.09;39.65
36242;BME280;22283;42.748;12.732;2023-02-11T14:45:19;99696.34;;;9.12;39.18
36242;BME280;22283;42.748;12.732;2023-02-11T14:50:32;99698.31;;;9.07;39.32
36242;BME280;22283;42.748;12.732;2023-02-11T14:55:35;99705.31;;;9.08;39.65
36242;BME280;22283;42.748;12.732;2023-02-11T15:00:47;99695.00;;;9.02;40.14
36242;BME280;22283;42.748;12.732;2023-02-11T15:05:54;99690.97;;;8.93;40.25
36242;BME280;22283;42.748;12.732;2023-02-11T15:10:57;99671.28;;;8.80;40.20
36242;BME280;22283;42.748;12.732;2023-02-11T15:16:05;99666.25;;;8.74;39.74
36242;BME280;22283;42.748;12.732;2023-02-11T15:21:07;99674.28;;;8.71;39.12
36242;BME280;22283;42.748;12.732;2023-02-11T15:26:13;99670.31;;;8.60;39.19
36242;BME280;22283;42.748;12.732;2023-02-11T15:31:16;99668.94;;;8.52;40.19
36242;BME280;22283;42.748;12.732;2023-02-11T15:36:22;99672.38;;;8.30;41.21
36242;BME280;22283;42.748;12.732;2023-02-11T15:41:37;99668.16;;;8.03;42.79
36242;BME280;22283;42.748;12.732;2023-02-11T15:46:40;99667.59;;;7.71;44.47
36242;BME280;22283;42.748;12.732;2023-02-11T15:51:44;99658.19;;;7.41;45.56
36242;BME280;22283;42.748;12.732;2023-02-11T15:56:51;99661.66;;;7.16;46.42
36242;BME280;22283;42.748;12.732;2023-02-11T16:01:56;99650.38;;;6.87;47.01
36242;BME280;22283;42.748;12.732;2023-02-11T16:06:58;99651.38;;;6.57;47.70
36242;BME280;22283;42.748;12.732;2023-02-11T16:12:02;99656.81;;;6.24;49.45
36242;BME280;22283;42.748;12.732;2023-02-11T16:22:09;99668.03;;;5.70;51.91
36242;BME280;22283;42.748;12.732;2023-02-11T16:27:36;99673.09;;;5.47;52.10
36242;BME280;22283;42.748;12.732;2023-02-11T16:32:39;99681.50;;;5.27;52.67
36242;BME280;22283;42.748;12.732;2023-02-11T16:37:39;99691.09;;;4.95;54.06
36242;BME280;22283;42.748;12.732;2023-02-11T16:42:40;99693.06;;;4.85;54.70
36242;BME280;22283;42.748;12.732;2023-02-11T16:47:41;99690.63;;;4.78;54.79
36242;BME280;22283;42.748;12.732;2023-02-11T16:52:42;99690.59;;;4.43;55.39
36242;BME280;22283;42.748;12.732;2023-02-11T16:57:42;99694.16;;;4.39;55.77
36242;BME280;22283;42.748;12.732;2023-02-11T17:02:43;99700.91;;;4.50;55.43
36242;BME280;22283;42.748;12.732;2023-02-11T17:07:44;99706.66;;;4.28;56.24
36242;BME280;22283;42.748;12.732;2023-02-11T17:12:45;99714.34;;;3.95;57.33
36242;BME280;22283;42.748;12.732;2023-02-11T17:17:47;99702.03;;;3.57;58.53
36242;BME280;22283;42.748;12.732;2023-02-11T17:22:48;99711.31;;;3.29;60.19
36242;BME280;22283;42.748;12.732;2023-02-11T17:27:48;99706.13;;;3.26;60.67
36242;BME280;22283;42.748;12.732;2023-02-11T17:32:49;99709.13;;;3.04;61.67
36242;BME280;22283;42.748;12.732;2023-02-11T17:37:50;99714.69;;;2.84;62.65
36242;BME280;22283;42.748;12.732;2023-02-11T17:42:51;99709.78;;;2.66;63.57
36242;BME280;22283;42.748;12.732;2023-02-11T17:47:51;99713.59;;;2.43;64.35
36242;BME280;22283;42.748;12.732;2023-02-11T17:52:52;99712.72;;;2.41;64.71
36242;BME280;22283;42.748;12.732;2023-02-11T17:57:53;99711.94;;;2.36;64.40
36242;BME280;22283;42.748;12.732;2023-02-11T18:02:54;99699.03;;;2.26;65.37
36242;BME280;22283;42.748;12.732;2023-02-11T18:07:55;99711.31;;;2.20;64.35
36242;BME280;22283;42.748;12.732;2023-02-11T18:12:56;99706.25;;;2.08;65.42
36242;BME280;22283;42.748;12.732;2023-02-11T18:17:57;99712.88;;;2.34;63.83
36242;BME280;22283;42.748;12.732;2023-02-11T18:22:57;99712.88;;;2.34;63.53
36242;BME280;22283;42.748;12.732;2023-02-11T18:27:58;99712.31;;;2.12;64.82
36242;BME280;22283;42.748;12.732;2023-02-11T18:32:58;99710.03;;;1.86;65.14
36242;BME280;22283;42.748;12.732;2023-02-11T18:37:59;99716.94;;;1.91;64.74
36242;BME280;22283;42.748;12.732;2023-02-11T18:43:00;99719.69;;;1.79;64.27
36242;BME280;22283;42.748;12.732;2023-02-11T18:48:00;99715.47;;;1.69;64.99
36242;BME280;22283;42.748;12.732;2023-02-11T18:53:04;99723.44;;;1.57;65.60
36242;BME280;22283;42.748;12.732;2023-02-11T18:58:05;99729.56;;;1.53;65.78
36242;BME280;22283;42.748;12.732;2023-02-11T19:03:06;99733.88;;;1.54;66.11
36242;BME280;22283;42.748;12.732;2023-02-11T19:08:07;99741.22;;;1.18;67.19
36242;BME280;22283;42.748;12.732;2023-02-11T19:13:08;99732.78;;;0.90;67.65
36242;BME280;22283;42.748;12.732;2023-02-11T19:18:09;99731.09;;;0.87;67.44
36242;BME280;22283;42.748;12.732;2023-02-11T19:23:10;99722.41;;;0.82;68.33
36242;BME280;22283;42.748;12.732;2023-02-11T19:28:11;99727.72;;;0.70;68.80
36242;BME280;22283;42.748;12.732;2023-02-11T19:33:15;99733.03;;;0.61;69.70
36242;BME280;22283;42.748;12.732;2023-02-11T19:38:16;99728.69;;;0.55;70.07
36242;BME280;22283;42.748;12.732;2023-02-11T19:43:17;99729.63;;;0.49;70.80
36242;BME280;22283;42.748;12.732;2023-02-11T19:48:21;99735.75;;;0.41;70.11
36242;BME280;22283;42.748;12.732;2023-02-11T19:53:22;99737.56;;;0.33;70.25
36242;BME280;22283;42.748;12.732;2023-02-11T19:58:23;99736.72;;;0.23;70.48
36242;BME280;22283;42.748;12.732;2023-02-11T20:03:23;99740.28;;;0.07;71.27
36242;BME280;22283;42.748;12.732;2023-02-11T20:08:24;99729.97;;;-0.07;72.39
36242;BME280;22283;42.748;12.732;2023-02-11T20:13:28;99722.16;;;-0.16;72.63
36242;BME280;22283;42.748;12.732;2023-02-11T20:18:31;99716.09;;;-0.14;71.58
36242;BME280;22283;42.748;12.732;2023-02-11T20:23:31;99714.41;;;-0.21;72.03
36242;BME280;22283;42.748;12.732;2023-02-11T20:28:32;99716.16;;;-0.23;72.09
36242;BME280;22283;42.748;12.732;2023-02-11T20:33:33;99700.56;;;-0.28;71.76
36242;BME280;22283;42.748;12.732;2023-02-11T20:38:34;99697.13;;;-0.31;71.39
36242;BME280;22283;42.748;12.732;2023-02-11T20:43:35;99698.75;;;-0.12;69.50
36242;BME280;22283;42.748;12.732;2023-02-11T20:48:37;99700.53;;;-0.23;69.67
36242;BME280;22283;42.748;12.732;2023-02-11T20:53:41;99710.16;;;-0.48;70.13
36242;BME280;22283;42.748;12.732;2023-02-11T20:58:43;99704.13;;;-0.55;70.73
36242;BME280;22283;42.748;12.732;2023-02-11T21:03:55;99691.97;;;-0.53;70.37
36242;BME280;22283;42.748;12.732;2023-02-11T21:08:56;99710.19;;;-0.57;70.60
36242;BME280;22283;42.748;12.732;2023-02-11T21:13:57;99710.22;;;-0.63;70.91
36242;BME280;22283;42.748;12.732;2023-02-11T21:18:58;99709.38;;;-0.67;70.21
36242;BME280;22283;42.748;12.732;2023-02-11T21:23:59;99718.03;;;-0.83;70.47
36242;BME280;22283;42.748;12.732;2023-02-11T21:29:02;99712.00;;;-0.96;71.09
36242;BME280;22283;42.748;12.732;2023-02-11T21:34:04;99714.59;;;-0.88;71.11
36242;BME280;22283;42.748;12.732;2023-02-11T21:39:04;99699.88;;;-0.95;72.02
36242;BME280;22283;42.748;12.732;2023-02-11T21:44:05;99716.38;;;-1.09;72.63
36242;BME280;22283;42.748;12.732;2023-02-11T21:49:06;99707.72;;;-1.11;72.57
36242;BME280;22283;42.748;12.732;2023-02-11T21:54:07;99714.63;;;-1.13;73.29
36242;BME280;22283;42.748;12.732;2023-02-11T21:59:10;99718.09;;;-1.20;72.68
36242;BME280;22283;42.748;12.732;2023-02-11T22:04:11;99722.44;;;-1.22;72.05
36242;BME280;22283;42.748;12.732;2023-02-11T22:09:12;99727.63;;;-1.24;72.20
36242;BME280;22283;42.748;12.732;2023-02-11T22:14:12;99725.03;;;-1.34;72.06
36242;BME280;22283;42.748;12.732;2023-02-11T22:19:13;99724.16;;;-1.38;72.72
36242;BME280;22283;42.748;12.732;2023-02-11T22:24:14;99733.69;;;-1.41;73.33
36242;BME280;22283;42.748;12.732;2023-02-11T22:29:15;99725.00;;;-1.31;71.30
36242;BME280;22283;42.748;12.732;2023-02-11T22:34:16;99734.56;;;-1.29;70.90
36242;BME280;22283;42.748;12.732;2023-02-11T22:39:16;99735.41;;;-1.31;72.23
36242;BME280;22283;42.748;12.732;2023-02-11T22:44:17;99730.22;;;-1.50;72.94
36242;BME280;22283;42.748;12.732;2023-02-11T22:49:20;99735.38;;;-1.59;73.59
36242;BME280;22283;42.748;12.732;2023-02-11T22:54:21;99731.94;;;-1.58;72.63
36242;BME280;22283;42.748;12.732;2023-02-11T22:59:22;99727.56;;;-1.66;72.83
36242;BME280;22283;42.748;12.732;2023-02-11T23:04:22;99734.50;;;-1.68;73.42
36242;BME280;22283;42.748;12.732;2023-02-11T23:09:23;99742.28;;;-1.75;74.00
36242;BME280;22283;42.748;12.732;2023-02-11T23:14:24;99738.84;;;-1.78;74.36
36242;BME280;22283;42.748;12.732;2023-02-11T23:19:25;99738.84;;;-1.78;73.26
36242;BME280;22283;42.748;12.732;2023-02-11T23:24:25;99719.78;;;-1.80;74.18
36242;BME280;22283;42.748;12.732;2023-02-11T23:29:26;99723.19;;;-1.90;74.08
36242;BME280;22283;42.748;12.732;2023-02-11T23:34:27;99716.28;;;-1.98;75.44
36242;BME280;22283;42.748;12.732;2023-02-11T23:39:27;99719.72;;;-1.99;75.85
36242;BME280;22283;42.748;12.732;2023-02-11T23:44:28;99721.47;;;-1.98;75.17
36242;BME280;22283;42.748;12.732;2023-02-11T23:49:29;99732.75;;;-1.89;75.92
36242;BME280;22283;42.748;12.732;2023-02-11T23:54:29;99728.41;;;-1.93;77.04
36242;BME280;22283;42.748;12.732;2023-02-11T23:59:33;99714.56;;;-1.92;75.12
